sensor_id;sensor_type;location;lat;lon;timestamp;P1;durP1;ratioP1;P2;durP2;ratioP2
67558;SDS011;54388;53.536;49.300;2023-04-24T00:00:40;5.28;;;1.73;;
67558;SDS011;54388;53.536;49.300;2023-04-24T00:03:13;4.20;;;1.88;;
67558;SDS011;54388;53.536;49.300;2023-04-24T00:05:41;4.00;;;1.60;;
67558;SDS011;54388;53.536;49.300;2023-04-24T00:08:08;5.18;;;1.83;;
67558;SDS011;54388;53.536;49.300;2023-04-24T00:10:35;6.10;;;2.95;;
67558;SDS011;54388;53.536;49.300;2023-04-24T00:13:01;5.78;;;1.55;;
67558;SDS011;54388;53.536;49.300;2023-04-24T00:15:30;4.40;;;1.90;;
67558;SDS011;54388;53.536;49.300;2023-04-24T00:17:59;5.40;;;1.88;;
67558;SDS011;54388;53.536;49.300;2023-04-24T00:20:27;5.78;;;2.00;;
67558;SDS011;54388;53.536;49.300;2023-04-24T00:22:58;9.45;;;1.90;;
67558;SDS011;54388;53.536;49.300;2023-04-24T00:25:26;8.30;;;2.00;;
67558;SDS011;54388;53.536;49.300;2023-04-24T00:27:55;4.57;;;2.03;;
67558;SDS011;54388;53.536;49.300;2023-04-24T00:30:24;7.20;;;1.98;;
67558;SDS011;54388;53.536;49.300;2023-04-24T00:32:53;4.47;;;1.70;;
67558;SDS011;54388;53.536;49.300;2023-04-24T00:35:21;4.50;;;2.08;;
67558;SDS011;54388;53.536;49.300;2023-04-24T00:37:48;4.70;;;2.00;;
67558;SDS011;54388;53.536;49.300;2023-04-24T00:40:17;4.78;;;1.70;;
67558;SDS011;54388;53.536;49.300;2023-04-24T00:42:46;4.97;;;1.80;;
67558;SDS011;54388;53.536;49.300;2023-04-24T00:45:15;4.75;;;1.85;;
67558;SDS011;54388;53.536;49.300;2023-04-24T00:47:45;7.18;;;2.30;;
67558;SDS011;54388;53.536;49.300;2023-04-24T00:50:14;6.05;;;2.25;;
67558;SDS011;54388;53.536;49.300;2023-04-24T00:52:44;5.07;;;1.83;;
67558;SDS011;54388;53.536;49.300;2023-04-24T00:55:10;4.38;;;1.90;;
67558;SDS011;54388;53.536;49.300;2023-04-24T00:57:37;4.30;;;1.85;;
67558;SDS011;54388;53.536;49.300;2023-04-24T01:00:04;3.42;;;1.80;;
67558;SDS011;54388;53.536;49.300;2023-04-24T01:02:36;5.85;;;1.70;;
67558;SDS011;54388;53.536;49.300;2023-04-24T01:05:09;5.82;;;2.17;;
67558;SDS011;54388;53.536;49.300;2023-04-24T01:07:37;6.95;;;1.80;;
67558;SDS011;54388;53.536;49.300;2023-04-24T01:10:07;3.45;;;1.80;;
67558;SDS011;54388;53.536;49.300;2023-04-24T01:12:34;3.92;;;2.00;;
67558;SDS011;54388;53.536;49.300;2023-04-24T01:15:01;4.00;;;1.75;;
67558;SDS011;54388;53.536;49.300;2023-04-24T01:17:28;4.18;;;1.90;;
67558;SDS011;54388;53.536;49.300;2023-04-24T01:19:57;3.20;;;1.90;;
67558;SDS011;54388;53.536;49.300;2023-04-24T01:22:25;3.20;;;1.80;;
67558;SDS011;54388;53.536;49.300;2023-04-24T01:24:57;4.60;;;1.88;;
67558;SDS011;54388;53.536;49.300;2023-04-24T01:27:23;4.63;;;1.90;;
67558;SDS011;54388;53.536;49.300;2023-04-24T01:29:50;6.78;;;2.00;;
67558;SDS011;54388;53.536;49.300;2023-04-24T01:32:20;5.25;;;2.40;;
67558;SDS011;54388;53.536;49.300;2023-04-24T01:34:49;5.70;;;1.98;;
67558;SDS011;54388;53.536;49.300;2023-04-24T01:37:18;5.07;;;2.10;;
67558;SDS011;54388;53.536;49.300;2023-04-24T01:39:47;6.13;;;2.38;;
67558;SDS011;54388;53.536;49.300;2023-04-24T01:42:16;5.40;;;2.13;;
67558;SDS011;54388;53.536;49.300;2023-04-24T01:44:43;8.88;;;2.58;;
67558;SDS011;54388;53.536;49.300;2023-04-24T01:47:12;5.75;;;1.80;;
67558;SDS011;54388;53.536;49.300;2023-04-24T01:49:39;4.20;;;1.90;;
67558;SDS011;54388;53.536;49.300;2023-04-24T01:52:06;4.65;;;1.90;;
67558;SDS011;54388;53.536;49.300;2023-04-24T01:54:38;6.32;;;2.28;;
67558;SDS011;54388;53.536;49.300;2023-04-24T01:57:06;4.07;;;2.45;;
67558;SDS011;54388;53.536;49.300;2023-04-24T01:59:33;5.63;;;2.22;;
67558;SDS011;54388;53.536;49.300;2023-04-24T02:02:04;6.97;;;2.10;;
67558;SDS011;54388;53.536;49.300;2023-04-24T02:04:33;8.82;;;2.38;;
67558;SDS011;54388;53.536;49.300;2023-04-24T02:06:59;5.80;;;2.40;;
67558;SDS011;54388;53.536;49.300;2023-04-24T02:09:26;6.85;;;2.53;;
67558;SDS011;54388;53.536;49.300;2023-04-24T02:11:52;9.57;;;2.47;;
67558;SDS011;54388;53.536;49.300;2023-04-24T02:14:19;5.32;;;2.33;;
67558;SDS011;54388;53.536;49.300;2023-04-24T02:16:48;10.32;;;2.45;;
67558;SDS011;54388;53.536;49.300;2023-04-24T02:19:14;7.13;;;2.28;;
67558;SDS011;54388;53.536;49.300;2023-04-24T02:21:41;11.38;;;2.20;;
67558;SDS011;54388;53.536;49.300;2023-04-24T02:24:07;6.30;;;2.42;;
67558;SDS011;54388;53.536;49.300;2023-04-24T02:26:34;7.18;;;2.45;;
67558;SDS011;54388;53.536;49.300;2023-04-24T02:29:00;5.95;;;2.13;;
67558;SDS011;54388;53.536;49.300;2023-04-24T02:31:30;5.43;;;2.30;;
67558;SDS011;54388;53.536;49.300;2023-04-24T02:33:56;10.63;;;2.50;;
67558;SDS011;54388;53.536;49.300;2023-04-24T02:36:23;6.22;;;2.20;;
67558;SDS011;54388;53.536;49.300;2023-04-24T02:38:49;6.03;;;2.10;;
67558;SDS011;54388;53.536;49.300;2023-04-24T02:41:16;5.72;;;2.20;;
67558;SDS011;54388;53.536;49.300;2023-04-24T02:43:42;6.55;;;2.22;;
67558;SDS011;54388;53.536;49.300;2023-04-24T02:46:09;4.00;;;2.00;;
67558;SDS011;54388;53.536;49.300;2023-04-24T02:48:36;7.03;;;2.63;;
67558;SDS011;54388;53.536;49.300;2023-04-24T02:51:03;6.65;;;2.50;;
67558;SDS011;54388;53.536;49.300;2023-04-24T02:53:29;4.95;;;2.08;;
67558;SDS011;54388;53.536;49.300;2023-04-24T02:55:56;4.88;;;2.50;;
67558;SDS011;54388;53.536;49.300;2023-04-24T02:58:25;10.13;;;2.47;;
67558;SDS011;54388;53.536;49.300;2023-04-24T03:00:55;9.98;;;2.35;;
67558;SDS011;54388;53.536;49.300;2023-04-24T03:03:21;6.03;;;2.40;;
67558;SDS011;54388;53.536;49.300;2023-04-24T03:05:49;10.60;;;2.10;;
67558;SDS011;54388;53.536;49.300;2023-04-24T03:08:16;7.80;;;2.45;;
67558;SDS011;54388;53.536;49.300;2023-04-24T03:10:43;6.55;;;2.40;;
67558;SDS011;54388;53.536;49.300;2023-04-24T03:13:09;5.25;;;1.83;;
67558;SDS011;54388;53.536;49.300;2023-04-24T03:15:36;5.60;;;2.17;;
67558;SDS011;54388;53.536;49.300;2023-04-24T03:18:02;8.32;;;2.70;;
67558;SDS011;54388;53.536;49.300;2023-04-24T03:20:29;6.18;;;2.20;;
67558;SDS011;54388;53.536;49.300;2023-04-24T03:22:58;6.95;;;2.08;;
67558;SDS011;54388;53.536;49.300;2023-04-24T03:25:27;8.65;;;2.30;;
67558;SDS011;54388;53.536;49.300;2023-04-24T03:27:53;4.30;;;2.10;;
67558;SDS011;54388;53.536;49.300;2023-04-24T03:30:22;6.68;;;2.22;;
67558;SDS011;54388;53.536;49.300;2023-04-24T03:32:53;10.93;;;2.28;;
67558;SDS011;54388;53.536;49.300;2023-04-24T03:35:24;7.50;;;1.80;;
67558;SDS011;54388;53.536;49.300;2023-04-24T03:37:53;6.95;;;2.13;;
67558;SDS011;54388;53.536;49.300;2023-04-24T03:40:19;4.70;;;2.28;;
67558;SDS011;54388;53.536;49.300;2023-04-24T03:42:48;10.85;;;2.15;;
67558;SDS011;54388;53.536;49.300;2023-04-24T03:45:17;7.00;;;2.17;;
67558;SDS011;54388;53.536;49.300;2023-04-24T03:47:46;7.68;;;2.00;;
67558;SDS011;54388;53.536;49.300;2023-04-24T03:50:15;6.35;;;2.17;;
67558;SDS011;54388;53.536;49.300;2023-04-24T03:52:45;6.50;;;2.35;;
67558;SDS011;54388;53.536;49.300;2023-04-24T03:55:15;6.18;;;2.00;;
67558;SDS011;54388;53.536;49.300;2023-04-24T03:57:41;9.13;;;2.60;;
67558;SDS011;54388;53.536;49.300;2023-04-24T04:00:11;7.47;;;2.15;;
67558;SDS011;54388;53.536;49.300;2023-04-24T04:02:40;9.77;;;1.90;;
67558;SDS011;54388;53.536;49.300;2023-04-24T04:05:07;6.78;;;2.30;;
67558;SDS011;54388;53.536;49.300;2023-04-24T04:07:39;4.70;;;2.25;;
67558;SDS011;54388;53.536;49.300;2023-04-24T04:10:08;6.38;;;2.00;;
67558;SDS011;54388;53.536;49.300;2023-04-24T04:12:40;4.53;;;2.17;;
67558;SDS011;54388;53.536;49.300;2023-04-24T04:15:10;6.03;;;1.75;;
67558;SDS011;54388;53.536;49.300;2023-04-24T04:17:39;9.10;;;2.00;;
67558;SDS011;54388;53.536;49.300;2023-04-24T04:20:06;7.90;;;2.10;;
67558;SDS011;54388;53.536;49.300;2023-04-24T04:22:36;10.00;;;2.35;;
67558;SDS011;54388;53.536;49.300;2023-04-24T04:25:05;5.53;;;2.00;;
67558;SDS011;54388;53.536;49.300;2023-04-24T04:27:33;6.13;;;2.05;;
67558;SDS011;54388;53.536;49.300;2023-04-24T04:30:02;6.85;;;2.15;;
67558;SDS011;54388;53.536;49.300;2023-04-24T04:32:31;4.00;;;1.80;;
67558;SDS011;54388;53.536;49.300;2023-04-24T04:34:59;4.85;;;1.90;;
67558;SDS011;54388;53.536;49.300;2023-04-24T04:37:30;9.35;;;2.13;;
67558;SDS011;54388;53.536;49.300;2023-04-24T04:39:57;7.65;;;2.05;;
67558;SDS011;54388;53.536;49.300;2023-04-24T04:42:25;4.75;;;2.03;;
67558;SDS011;54388;53.536;49.300;2023-04-24T04:44:55;6.45;;;2.22;;
67558;SDS011;54388;53.536;49.300;2023-04-24T04:47:22;6.18;;;1.80;;
67558;SDS011;54388;53.536;49.300;2023-04-24T04:49:52;8.60;;;1.90;;
67558;SDS011;54388;53.536;49.300;2023-04-24T04:52:21;5.72;;;2.00;;
67558;SDS011;54388;53.536;49.300;2023-04-24T04:54:54;5.43;;;1.80;;
67558;SDS011;54388;53.536;49.300;2023-04-24T04:57:25;5.22;;;2.10;;
67558;SDS011;54388;53.536;49.300;2023-04-24T04:59:52;5.22;;;2.00;;
67558;SDS011;54388;53.536;49.300;2023-04-24T05:02:19;6.10;;;2.25;;
67558;SDS011;54388;53.536;49.300;2023-04-24T05:04:46;7.38;;;2.13;;
67558;SDS011;54388;53.536;49.300;2023-04-24T05:07:15;5.32;;;1.88;;
67558;SDS011;54388;53.536;49.300;2023-04-24T05:09:44;9.95;;;2.25;;
67558;SDS011;54388;53.536;49.300;2023-04-24T05:12:13;5.63;;;1.77;;
67558;SDS011;54388;53.536;49.300;2023-04-24T05:14:44;6.38;;;1.90;;
67558;SDS011;54388;53.536;49.300;2023-04-24T05:17:11;4.75;;;2.10;;
67558;SDS011;54388;53.536;49.300;2023-04-24T05:19:37;6.45;;;1.92;;
67558;SDS011;54388;53.536;49.300;2023-04-24T05:22:04;4.95;;;1.80;;
67558;SDS011;54388;53.536;49.300;2023-04-24T05:24:37;9.82;;;2.20;;
67558;SDS011;54388;53.536;49.300;2023-04-24T05:27:04;5.82;;;2.28;;
67558;SDS011;54388;53.536;49.300;2023-04-24T05:29:33;5.10;;;2.00;;
67558;SDS011;54388;53.536;49.300;2023-04-24T05:32:01;6.72;;;2.00;;
67558;SDS011;54388;53.536;49.300;2023-04-24T05:34:28;5.57;;;2.00;;
67558;SDS011;54388;53.536;49.300;2023-04-24T05:36:57;5.13;;;2.15;;
67558;SDS011;54388;53.536;49.300;2023-04-24T05:39:23;7.53;;;2.40;;
67558;SDS011;54388;53.536;49.300;2023-04-24T05:41:51;7.13;;;2.40;;
67558;SDS011;54388;53.536;49.300;2023-04-24T05:44:17;9.30;;;2.05;;
67558;SDS011;54388;53.536;49.300;2023-04-24T05:46:47;8.52;;;2.13;;
67558;SDS011;54388;53.536;49.300;2023-04-24T05:49:13;4.80;;;2.17;;
67558;SDS011;54388;53.536;49.300;2023-04-24T05:51:40;7.22;;;1.98;;
67558;SDS011;54388;53.536;49.300;2023-04-24T05:54:07;6.50;;;2.00;;
67558;SDS011;54388;53.536;49.300;2023-04-24T05:56:36;5.43;;;2.03;;
67558;SDS011;54388;53.536;49.300;2023-04-24T05:59:03;4.85;;;1.73;;
67558;SDS011;54388;53.536;49.300;2023-04-24T06:01:32;7.85;;;2.20;;
67558;SDS011;54388;53.536;49.300;2023-04-24T06:03:59;8.77;;;2.28;;
67558;SDS011;54388;53.536;49.300;2023-04-24T06:06:26;7.05;;;2.08;;
67558;SDS011;54388;53.536;49.300;2023-04-24T06:08:52;4.35;;;1.92;;
67558;SDS011;54388;53.536;49.300;2023-04-24T06:11:22;5.50;;;1.80;;
67558;SDS011;54388;53.536;49.300;2023-04-24T06:13:51;5.45;;;1.90;;
67558;SDS011;54388;53.536;49.300;2023-04-24T06:16:20;9.43;;;1.92;;
67558;SDS011;54388;53.536;49.300;2023-04-24T06:18:49;8.70;;;1.80;;
67558;SDS011;54388;53.536;49.300;2023-04-24T06:21:16;6.50;;;1.90;;
67558;SDS011;54388;53.536;49.300;2023-04-24T06:23:43;7.53;;;1.83;;
67558;SDS011;54388;53.536;49.300;2023-04-24T06:26:14;8.20;;;2.10;;
67558;SDS011;54388;53.536;49.300;2023-04-24T06:28:41;2.67;;;1.83;;
67558;SDS011;54388;53.536;49.300;2023-04-24T06:31:10;3.38;;;1.73;;
67558;SDS011;54388;53.536;49.300;2023-04-24T06:33:39;4.38;;;1.95;;
67558;SDS011;54388;53.536;49.300;2023-04-24T06:36:06;5.30;;;1.70;;
67558;SDS011;54388;53.536;49.300;2023-04-24T06:38:36;4.65;;;1.73;;
67558;SDS011;54388;53.536;49.300;2023-04-24T06:41:04;4.25;;;2.03;;
67558;SDS011;54388;53.536;49.300;2023-04-24T06:43:37;6.43;;;1.80;;
67558;SDS011;54388;53.536;49.300;2023-04-24T06:46:04;7.95;;;1.85;;
67558;SDS011;54388;53.536;49.300;2023-04-24T06:48:36;4.93;;;1.85;;
67558;SDS011;54388;53.536;49.300;2023-04-24T06:51:06;6.03;;;1.90;;
67558;SDS011;54388;53.536;49.300;2023-04-24T06:53:32;3.60;;;1.67;;
67558;SDS011;54388;53.536;49.300;2023-04-24T06:55:59;3.38;;;1.80;;
67558;SDS011;54388;53.536;49.300;2023-04-24T06:58:26;8.05;;;1.80;;
67558;SDS011;54388;53.536;49.300;2023-04-24T07:01:01;8.48;;;1.80;;
67558;SDS011;54388;53.536;49.300;2023-04-24T07:03:27;4.10;;;1.80;;
67558;SDS011;54388;53.536;49.300;2023-04-24T07:05:54;6.05;;;1.90;;
67558;SDS011;54388;53.536;49.300;2023-04-24T07:08:24;5.80;;;2.15;;
67558;SDS011;54388;53.536;49.300;2023-04-24T07:10:55;3.63;;;1.60;;
67558;SDS011;54388;53.536;49.300;2023-04-24T07:13:25;4.20;;;1.65;;
67558;SDS011;54388;53.536;49.300;2023-04-24T07:15:56;3.08;;;1.55;;
67558;SDS011;54388;53.536;49.300;2023-04-24T07:18:23;5.65;;;1.83;;
67558;SDS011;54388;53.536;49.300;2023-04-24T07:20:54;3.60;;;1.63;;
67558;SDS011;54388;53.536;49.300;2023-04-24T07:23:23;4.50;;;1.50;;
67558;SDS011;54388;53.536;49.300;2023-04-24T07:25:51;3.70;;;1.67;;
67558;SDS011;54388;53.536;49.300;2023-04-24T07:28:18;5.70;;;1.50;;
67558;SDS011;54388;53.536;49.300;2023-04-24T07:30:44;6.55;;;1.80;;
67558;SDS011;54388;53.536;49.300;2023-04-24T07:33:14;4.40;;;1.55;;
67558;SDS011;54388;53.536;49.300;2023-04-24T07:35:41;3.97;;;1.70;;
67558;SDS011;54388;53.536;49.300;2023-04-24T07:38:13;5.30;;;1.40;;
67558;SDS011;54388;53.536;49.300;2023-04-24T07:40:42;3.60;;;1.70;;
67558;SDS011;54388;53.536;49.300;2023-04-24T07:43:12;4.75;;;1.75;;
67558;SDS011;54388;53.536;49.300;2023-04-24T07:45:41;4.88;;;1.75;;
67558;SDS011;54388;53.536;49.300;2023-04-24T07:48:11;5.10;;;1.50;;
67558;SDS011;54388;53.536;49.300;2023-04-24T07:50:43;3.83;;;1.70;;
67558;SDS011;54388;53.536;49.300;2023-04-24T07:53:25;6.47;;;1.90;;
67558;SDS011;54388;53.536;49.300;2023-04-24T07:55:54;4.78;;;1.70;;
67558;SDS011;54388;53.536;49.300;2023-04-24T07:58:21;4.20;;;1.52;;
67558;SDS011;54388;53.536;49.300;2023-04-24T08:00:48;6.10;;;1.90;;
67558;SDS011;54388;53.536;49.300;2023-04-24T08:03:20;4.13;;;1.60;;
67558;SDS011;54388;53.536;49.300;2023-04-24T08:05:50;8.48;;;1.75;;
67558;SDS011;54388;53.536;49.300;2023-04-24T08:08:18;9.18;;;1.83;;
67558;SDS011;54388;53.536;49.300;2023-04-24T08:10:50;6.22;;;1.70;;
67558;SDS011;54388;53.536;49.300;2023-04-24T08:13:17;2.42;;;1.70;;
67558;SDS011;54388;53.536;49.300;2023-04-24T08:15:44;5.57;;;1.58;;
67558;SDS011;54388;53.536;49.300;2023-04-24T08:18:11;4.65;;;1.80;;
67558;SDS011;54388;53.536;49.300;2023-04-24T08:20:42;2.72;;;1.60;;
67558;SDS011;54388;53.536;49.300;2023-04-24T08:23:09;4.90;;;1.98;;
67558;SDS011;54388;53.536;49.300;2023-04-24T08:25:38;4.82;;;1.63;;
67558;SDS011;54388;53.536;49.300;2023-04-24T08:28:06;7.57;;;1.73;;
67558;SDS011;54388;53.536;49.300;2023-04-24T08:30:37;3.15;;;1.73;;
67558;SDS011;54388;53.536;49.300;2023-04-24T08:33:07;5.55;;;1.60;;
67558;SDS011;54388;53.536;49.300;2023-04-24T08:35:37;2.85;;;1.50;;
67558;SDS011;54388;53.536;49.300;2023-04-24T08:38:03;5.72;;;1.70;;
67558;SDS011;54388;53.536;49.300;2023-04-24T08:40:33;7.15;;;1.70;;
67558;SDS011;54388;53.536;49.300;2023-04-24T08:43:01;5.25;;;1.83;;
67558;SDS011;54388;53.536;49.300;2023-04-24T08:45:28;3.05;;;1.30;;
67558;SDS011;54388;53.536;49.300;2023-04-24T08:47:58;3.97;;;1.50;;
67558;SDS011;54388;53.536;49.300;2023-04-24T08:50:26;6.22;;;1.65;;
67558;SDS011;54388;53.536;49.300;2023-04-24T08:52:54;5.80;;;1.80;;
67558;SDS011;54388;53.536;49.300;2023-04-24T08:55:24;5.38;;;1.80;;
67558;SDS011;54388;53.536;49.300;2023-04-24T08:57:55;2.83;;;1.65;;
67558;SDS011;54388;53.536;49.300;2023-04-24T09:00:25;4.70;;;1.67;;
67558;SDS011;54388;53.536;49.300;2023-04-24T09:02:55;4.85;;;1.60;;
67558;SDS011;54388;53.536;49.300;2023-04-24T09:05:23;4.28;;;1.50;;
67558;SDS011;54388;53.536;49.300;2023-04-24T09:07:54;2.80;;;1.50;;
67558;SDS011;54388;53.536;49.300;2023-04-24T09:10:23;1.85;;;1.40;;
67558;SDS011;54388;53.536;49.300;2023-04-24T09:12:51;2.42;;;1.45;;
67558;SDS011;54388;53.536;49.300;2023-04-24T09:15:19;4.32;;;1.35;;
67558;SDS011;54388;53.536;49.300;2023-04-24T09:17:46;7.80;;;1.50;;
67558;SDS011;54388;53.536;49.300;2023-04-24T09:20:14;3.97;;;1.45;;
67558;SDS011;54388;53.536;49.300;2023-04-24T09:22:44;3.47;;;1.50;;
67558;SDS011;54388;53.536;49.300;2023-04-24T09:25:11;3.08;;;1.38;;
67558;SDS011;54388;53.536;49.300;2023-04-24T09:27:42;2.65;;;1.48;;
67558;SDS011;54388;53.536;49.300;2023-04-24T09:30:10;3.53;;;1.48;;
67558;SDS011;54388;53.536;49.300;2023-04-24T09:32:40;2.03;;;1.25;;
67558;SDS011;54388;53.536;49.300;2023-04-24T09:35:08;3.63;;;1.58;;
67558;SDS011;54388;53.536;49.300;2023-04-24T09:40:16;4.85;;;1.67;;
67558;SDS011;54388;53.536;49.300;2023-04-24T09:42:57;2.08;;;1.38;;
67558;SDS011;54388;53.536;49.300;2023-04-24T09:45:34;2.88;;;1.83;;
67558;SDS011;54388;53.536;49.300;2023-04-24T09:48:07;4.25;;;1.42;;
67558;SDS011;54388;53.536;49.300;2023-04-24T09:50:35;3.75;;;1.90;;
67558;SDS011;54388;53.536;49.300;2023-04-24T09:53:05;3.58;;;1.60;;
67558;SDS011;54388;53.536;49.300;2023-04-24T09:55:42;3.75;;;1.70;;
67558;SDS011;54388;53.536;49.300;2023-04-24T09:58:15;2.22;;;1.48;;
67558;SDS011;54388;53.536;49.300;2023-04-24T10:00:42;5.70;;;1.90;;
67558;SDS011;54388;53.536;49.300;2023-04-24T10:03:14;3.25;;;1.50;;
67558;SDS011;54388;53.536;49.300;2023-04-24T10:05:44;5.22;;;1.50;;
67558;SDS011;54388;53.536;49.300;2023-04-24T10:08:12;5.18;;;1.95;;
67558;SDS011;54388;53.536;49.300;2023-04-24T10:10:42;3.47;;;1.80;;
67558;SDS011;54388;53.536;49.300;2023-04-24T10:13:11;4.07;;;1.92;;
67558;SDS011;54388;53.536;49.300;2023-04-24T10:15:40;3.13;;;1.40;;
67558;SDS011;54388;53.536;49.300;2023-04-24T10:18:08;3.22;;;1.60;;
67558;SDS011;54388;53.536;49.300;2023-04-24T10:20:36;6.95;;;2.00;;
67558;SDS011;54388;53.536;49.300;2023-04-24T10:23:08;4.60;;;1.90;;
67558;SDS011;54388;53.536;49.300;2023-04-24T10:25:36;4.82;;;2.10;;
67558;SDS011;54388;53.536;49.300;2023-04-24T10:28:03;3.63;;;1.58;;
67558;SDS011;54388;53.536;49.300;2023-04-24T10:30:31;5.57;;;1.88;;
67558;SDS011;54388;53.536;49.300;2023-04-24T10:33:06;5.90;;;1.52;;
67558;SDS011;54388;53.536;49.300;2023-04-24T10:35:36;5.85;;;2.08;;
67558;SDS011;54388;53.536;49.300;2023-04-24T10:38:06;5.32;;;1.67;;
67558;SDS011;54388;53.536;49.300;2023-04-24T10:40:37;2.13;;;1.58;;
67558;SDS011;54388;53.536;49.300;2023-04-24T10:43:07;3.70;;;1.80;;
67558;SDS011;54388;53.536;49.300;2023-04-24T10:45:37;3.05;;;1.48;;
67558;SDS011;54388;53.536;49.300;2023-04-24T10:48:07;4.22;;;1.60;;
67558;SDS011;54388;53.536;49.300;2023-04-24T10:50:46;6.07;;;1.88;;
67558;SDS011;54388;53.536;49.300;2023-04-24T10:53:16;2.97;;;1.42;;
67558;SDS011;54388;53.536;49.300;2023-04-24T11:01:28;3.97;;;1.40;;
67558;SDS011;54388;53.536;49.300;2023-04-24T11:04:01;3.67;;;1.27;;
67558;SDS011;54388;53.536;49.300;2023-04-24T11:06:32;2.72;;;1.35;;
67558;SDS011;54388;53.536;49.300;2023-04-24T11:11:36;4.05;;;1.50;;
67558;SDS011;54388;53.536;49.300;2023-04-24T11:14:14;2.90;;;1.20;;
67558;SDS011;54388;53.536;49.300;2023-04-24T11:21:43;3.05;;;1.38;;
67558;SDS011;54388;53.536;49.300;2023-04-24T11:24:23;1.20;;;1.10;;
67558;SDS011;54388;53.536;49.300;2023-04-24T11:29:49;2.05;;;1.40;;
67558;SDS011;54388;53.536;49.300;2023-04-24T11:35:12;3.20;;;1.40;;
67558;SDS011;54388;53.536;49.300;2023-04-24T11:37:51;5.07;;;1.45;;
67558;SDS011;54388;53.536;49.300;2023-04-24T11:40:27;3.17;;;1.42;;
67558;SDS011;54388;53.536;49.300;2023-04-24T11:42:55;5.22;;;1.40;;
67558;SDS011;54388;53.536;49.300;2023-04-24T11:45:28;2.55;;;1.35;;
67558;SDS011;54388;53.536;49.300;2023-04-24T11:47:59;4.13;;;1.60;;
67558;SDS011;54388;53.536;49.300;2023-04-24T11:50:31;2.03;;;1.30;;
67558;SDS011;54388;53.536;49.300;2023-04-24T11:53:05;4.45;;;1.23;;
67558;SDS011;54388;53.536;49.300;2023-04-24T11:55:32;4.40;;;1.30;;
67558;SDS011;54388;53.536;49.300;2023-04-24T11:58:01;3.90;;;1.35;;
67558;SDS011;54388;53.536;49.300;2023-04-24T12:00:34;2.42;;;1.20;;
67558;SDS011;54388;53.536;49.300;2023-04-24T12:03:08;2.95;;;1.42;;
67558;SDS011;54388;53.536;49.300;2023-04-24T12:05:38;2.67;;;1.20;;
67558;SDS011;54388;53.536;49.300;2023-04-24T12:08:07;3.90;;;1.33;;
67558;SDS011;54388;53.536;49.300;2023-04-24T12:10:34;2.88;;;1.60;;
67558;SDS011;54388;53.536;49.300;2023-04-24T12:13:04;3.78;;;1.25;;
67558;SDS011;54388;53.536;49.300;2023-04-24T12:15:33;4.55;;;1.25;;
67558;SDS011;54388;53.536;49.300;2023-04-24T12:18:00;2.60;;;1.33;;
67558;SDS011;54388;53.536;49.300;2023-04-24T12:20:29;6.85;;;2.25;;
67558;SDS011;54388;53.536;49.300;2023-04-24T12:23:00;3.17;;;1.50;;
67558;SDS011;54388;53.536;49.300;2023-04-24T12:30:31;9.13;;;2.05;;
67558;SDS011;54388;53.536;49.300;2023-04-24T12:33:02;3.97;;;1.30;;
67558;SDS011;54388;53.536;49.300;2023-04-24T12:35:32;3.13;;;1.20;;
67558;SDS011;54388;53.536;49.300;2023-04-24T12:38:11;2.15;;;1.17;;
67558;SDS011;54388;53.536;49.300;2023-04-24T12:40:42;3.53;;;1.25;;
67558;SDS011;54388;53.536;49.300;2023-04-24T12:43:16;3.05;;;1.55;;
67558;SDS011;54388;53.536;49.300;2023-04-24T12:45:44;9.57;;;1.63;;
67558;SDS011;54388;53.536;49.300;2023-04-24T12:48:13;5.13;;;1.58;;
67558;SDS011;54388;53.536;49.300;2023-04-24T12:50:40;2.97;;;1.30;;
67558;SDS011;54388;53.536;49.300;2023-04-24T12:53:08;4.30;;;1.23;;
67558;SDS011;54388;53.536;49.300;2023-04-24T12:55:36;7.32;;;1.25;;
67558;SDS011;54388;53.536;49.300;2023-04-24T12:58:03;1.80;;;1.10;;
67558;SDS011;54388;53.536;49.300;2023-04-24T13:00:30;3.08;;;1.20;;
67558;SDS011;54388;53.536;49.300;2023-04-24T13:03:00;2.00;;;1.23;;
67558;SDS011;54388;53.536;49.300;2023-04-24T13:05:27;3.70;;;1.35;;
67558;SDS011;54388;53.536;49.300;2023-04-24T13:07:54;3.45;;;1.20;;
67558;SDS011;54388;53.536;49.300;2023-04-24T13:10:21;4.88;;;1.35;;
67558;SDS011;54388;53.536;49.300;2023-04-24T13:12:50;4.28;;;1.48;;
67558;SDS011;54388;53.536;49.300;2023-04-24T13:15:17;6.85;;;1.42;;
67558;SDS011;54388;53.536;49.300;2023-04-24T13:17:46;2.10;;;1.20;;
67558;SDS011;54388;53.536;49.300;2023-04-24T13:20:15;4.00;;;1.20;;
67558;SDS011;54388;53.536;49.300;2023-04-24T13:22:45;4.07;;;1.40;;
67558;SDS011;54388;53.536;49.300;2023-04-24T13:25:12;2.85;;;1.40;;
67558;SDS011;54388;53.536;49.300;2023-04-24T13:27:45;3.92;;;1.20;;
67558;SDS011;54388;53.536;49.300;2023-04-24T13:30:12;1.50;;;1.00;;
67558;SDS011;54388;53.536;49.300;2023-04-24T13:32:41;3.13;;;1.13;;
67558;SDS011;54388;53.536;49.300;2023-04-24T13:35:08;3.10;;;1.30;;
67558;SDS011;54388;53.536;49.300;2023-04-24T13:37:37;3.25;;;1.10;;
67558;SDS011;54388;53.536;49.300;2023-04-24T13:40:05;4.63;;;1.23;;
67558;SDS011;54388;53.536;49.300;2023-04-24T13:45:24;4.07;;;1.40;;
67558;SDS011;54388;53.536;49.300;2023-04-24T13:47:52;4.53;;;1.50;;
67558;SDS011;54388;53.536;49.300;2023-04-24T13:50:22;2.83;;;1.00;;
67558;SDS011;54388;53.536;49.300;2023-04-24T13:52:48;3.40;;;1.15;;
67558;SDS011;54388;53.536;49.300;2023-04-24T13:55:17;1.63;;;1.08;;
67558;SDS011;54388;53.536;49.300;2023-04-24T13:57:47;2.50;;;1.33;;
67558;SDS011;54388;53.536;49.300;2023-04-24T14:00:20;2.50;;;1.02;;
67558;SDS011;54388;53.536;49.300;2023-04-24T14:02:48;4.72;;;1.33;;
67558;SDS011;54388;53.536;49.300;2023-04-24T14:05:17;4.50;;;1.30;;
67558;SDS011;54388;53.536;49.300;2023-04-24T14:07:50;4.50;;;1.10;;
67558;SDS011;54388;53.536;49.300;2023-04-24T14:10:17;7.93;;;1.27;;
67558;SDS011;54388;53.536;49.300;2023-04-24T14:12:46;6.20;;;1.15;;
67558;SDS011;54388;53.536;49.300;2023-04-24T14:15:12;3.17;;;1.15;;
67558;SDS011;54388;53.536;49.300;2023-04-24T14:17:39;3.35;;;1.13;;
67558;SDS011;54388;53.536;49.300;2023-04-24T14:20:06;3.50;;;1.10;;
67558;SDS011;54388;53.536;49.300;2023-04-24T14:22:33;3.95;;;1.13;;
67558;SDS011;54388;53.536;49.300;2023-04-24T14:25:00;3.45;;;1.20;;
67558;SDS011;54388;53.536;49.300;2023-04-24T14:27:28;6.10;;;1.27;;
67558;SDS011;54388;53.536;49.300;2023-04-24T14:29:56;3.17;;;1.02;;
67558;SDS011;54388;53.536;49.300;2023-04-24T14:32:22;2.20;;;1.10;;
67558;SDS011;54388;53.536;49.300;2023-04-24T14:34:49;3.45;;;1.00;;
67558;SDS011;54388;53.536;49.300;2023-04-24T14:37:16;2.08;;;1.25;;
67558;SDS011;54388;53.536;49.300;2023-04-24T14:39:43;4.03;;;1.10;;
67558;SDS011;54388;53.536;49.300;2023-04-24T14:42:12;4.18;;;1.10;;
67558;SDS011;54388;53.536;49.300;2023-04-24T14:44:39;2.88;;;1.30;;
67558;SDS011;54388;53.536;49.300;2023-04-24T14:47:06;3.40;;;1.20;;
67558;SDS011;54388;53.536;49.300;2023-04-24T14:49:33;2.80;;;1.13;;
67558;SDS011;54388;53.536;49.300;2023-04-24T14:52:00;6.75;;;1.35;;
67558;SDS011;54388;53.536;49.300;2023-04-24T14:54:29;3.50;;;1.20;;
67558;SDS011;54388;53.536;49.300;2023-04-24T14:57:01;2.28;;;1.02;;
67558;SDS011;54388;53.536;49.300;2023-04-24T14:59:28;3.97;;;1.20;;
67558;SDS011;54388;53.536;49.300;2023-04-24T15:01:57;5.10;;;1.33;;
67558;SDS011;54388;53.536;49.300;2023-04-24T15:04:24;5.45;;;1.48;;
67558;SDS011;54388;53.536;49.300;2023-04-24T15:06:51;3.97;;;1.45;;
67558;SDS011;54388;53.536;49.300;2023-04-24T15:09:24;3.17;;;1.40;;
67558;SDS011;54388;53.536;49.300;2023-04-24T15:11:52;4.93;;;1.30;;